Time;durP1;ratioP1;P1;durP2;ratioP2;P2;SDS_P1;SDS_P2;PMS_P1;PMS_P2;Temp;Humidity;BMP_temperature;BMP_pressure;BME280_temperature;BME280_humidity;BME280_pressure;Samples;Min_cycle;Max_cycle;Signal;HPM_P1;HPM_P2
2024/02/29 00:00:39;;;;;;;93.47;48.13;;;;;;;7.58;98.37;99989.88;5089686;28;20099;-68
2024/02/29 00:03:04;;;;;;;90.43;47.13;;;;;;;7.53;97.67;99982.44;5089676;28;20016;-68
2024/02/29 00:05:30;;;;;;;101.60;46.65;;;;;;;7.35;98.59;99986.06;5089556;28;20024;-68
2024/02/29 00:07:55;;;;;;;97.90;45.40;;;;;;;7.38;98.31;99991.03;5108869;28;20039;-68
2024/02/29 00:10:21;;;;;;;95.13;50.00;;;;;;;6.73;100.00;99990.50;5076031;28;20050;-68
2024/02/29 00:12:46;;;;;;;96.78;51.65;;;;;;;6.61;100.00;99985.34;5089632;28;20110;-68
2024/02/29 00:15:12;;;;;;;98.07;53.50;;;;;;;6.66;100.00;99984.47;5089624;28;20028;-68
2024/02/29 00:17:37;;;;;;;108.03;53.50;;;;;;;6.83;100.00;99992.34;5090288;28;20453;-68
2024/02/29 00:20:08;;;;;;;93.68;51.83;;;;;;;6.51;100.00;99986.28;5089110;28;20145;-68
2024/02/29 00:22:34;;;;;;;97.50;51.28;;;;;;;6.32;100.00;100000.09;5092602;28;20028;-68
2024/02/29 00:25:00;;;;;;;97.38;51.50;;;;;;;6.17;100.00;99999.13;5074045;28;20465;-68
2024/02/29 00:27:25;;;;;;;93.60;50.42;;;;;;;5.96;100.00;99997.63;5091412;28;20042;-68
2024/02/29 00:29:51;;;;;;;89.70;52.83;;;;;;;5.76;100.00;100008.63;5089455;28;20031;-68
2024/02/29 00:32:17;;;;;;;103.20;49.75;;;;;;;5.69;100.00;100004.53;5071311;28;20472;-68
2024/02/29 00:34:42;;;;;;;92.05;48.28;;;;;;;5.75;100.00;99995.06;5089356;28;20028;-68
2024/02/29 00:37:08;;;;;;;96.93;52.92;;;;;;;5.72;100.00;100001.16;5070872;28;20024;-68
2024/02/29 00:39:33;;;;;;;93.80;52.47;;;;;;;5.69;100.00;100004.53;5071278;28;20028;-68
2024/02/29 00:41:59;;;;;;;107.25;55.80;;;;;;;5.69;100.00;100002.59;5071166;28;20485;-67
2024/02/29 00:44:24;;;;;;;116.95;55.80;;;;;;;5.27;100.00;99998.41;5089372;28;20485;-67
2024/02/29 00:46:50;;;;;;;101.22;54.85;;;;;;;5.23;100.00;100000.13;5107440;28;20507;-68
2024/02/29 00:49:15;;;;;;;106.65;55.35;;;;;;;5.51;100.00;100004.09;5109776;28;20567;-68
2024/02/29 00:51:41;;;;;;;100.68;55.72;;;;;;;5.53;100.00;100012.97;5091367;28;20485;-68
2024/02/29 00:54:07;;;;;;;104.22;55.05;;;;;;;5.33;100.00;100005.59;5109453;28;20034;-68
2024/02/29 00:56:32;;;;;;;102.18;53.85;;;;;;;5.17;100.00;100005.66;5108628;28;20023;-67
2024/02/29 00:58:58;;;;;;;108.95;54.53;;;;;;;4.75;100.00;100009.75;5113326;28;20047;-68
2024/02/29 01:01:23;;;;;;;99.18;52.38;;;;;;;4.95;100.00;100003.28;5113266;28;20031;-67
2024/02/29 01:03:49;;;;;;;90.90;50.25;;;;;;;4.92;100.00;100004.69;5095240;28;20031;-67
2024/02/29 01:06:15;;;;;;;97.70;51.08;;;;;;;4.71;100.00;100003.13;5112759;28;20028;-68
2024/02/29 01:08:41;;;;;;;96.32;48.47;;;;;;;4.74;100.00;100002.56;5112588;28;20042;-68
2024/02/29 01:11:06;;;;;;;84.88;48.65;;;;;;;4.71;100.00;100000.38;5097604;28;20031;-68
2024/02/29 01:13:32;;;;;;;89.32;49.88;;;;;;;4.90;100.00;99995.84;5092650;28;20024;-68
2024/02/29 01:15:57;;;;;;;89.82;50.65;;;;;;;5.12;100.00;100002.09;5092567;28;20035;-68
2024/02/29 01:18:23;;;;;;;88.95;48.63;;;;;;;5.31;100.00;100013.38;5092402;28;20024;-68
2024/02/29 01:20:48;;;;;;;96.15;50.60;;;;;;;5.58;100.00;100014.88;5074231;28;20031;-68
2024/02/29 01:23:14;;;;;;;90.07;48.45;;;;;;;5.73;100.00;100011.13;5108389;28;20061;-68
2024/02/29 01:25:39;;;;;;;90.93;45.65;;;;;;;5.25;100.00;100006.19;5111803;28;20186;-68
2024/02/29 01:28:05;;;;;;;89.15;46.85;;;;;;;5.48;100.00;100011.06;5090155;28;20039;-68
2024/02/29 01:30:30;;;;;;;86.93;46.05;;;;;;;5.56;100.00;100019.91;5090881;28;20034;-68
2024/02/29 01:32:56;;;;;;;82.35;45.50;;;;;;;5.52;100.00;100014.09;5092099;28;20024;-68
2024/02/29 01:35:21;;;;;;;68.47;39.15;;;;;;;5.48;100.00;100015.75;5093290;28;20032;-68
2024/02/29 01:37:47;;;;;;;70.40;36.97;;;;;;;5.60;100.00;100013.44;5092125;28;20094;-68
2024/02/29 01:40:15;;;;;;;63.55;35.53;;;;;;;5.88;100.00;100012.97;5074436;28;20492;-68
2024/02/29 01:42:41;;;;;;;62.03;34.05;;;;;;;6.10;100.00;100012.56;5092241;28;20253;-68
2024/02/29 01:45:07;;;;;;;64.38;33.83;;;;;;;6.28;100.00;100019.34;5101816;28;20024;-68
2024/02/29 01:47:33;;;;;;;62.83;32.30;;;;;;;6.22;100.00;100017.72;5073630;28;20056;-68
2024/02/29 01:50:02;;;;;;;59.95;33.85;;;;;;;6.23;100.00;100021.34;5092005;28;20016;-68
2024/02/29 01:52:31;;;;;;;62.65;32.53;;;;;;;6.11;100.00;100024.47;5091791;28;20028;-68
2024/02/29 01:54:57;;;;;;;65.43;35.38;;;;;;;5.85;100.00;100035.78;5091719;28;20119;-68
2024/02/29 01:57:24;;;;;;;76.38;34.70;;;;;;;5.36;100.00;100030.00;5103104;28;20062;-68
2024/02/29 01:59:49;;;;;;;65.25;34.53;;;;;;;4.88;100.00;100025.78;5108207;28;20040;-68
2024/02/29 02:02:15;;;;;;;73.75;38.47;;;;;;;4.86;100.00;100018.84;5094150;28;20038;-68
2024/02/29 02:04:41;;;;;;;75.18;39.20;;;;;;;4.36;100.00;100016.78;5092994;28;20038;-68
2024/02/29 02:07:08;;;;;;;78.25;38.38;;;;;;;4.66;100.00;100022.53;5110605;28;20431;-68
2024/02/29 02:09:34;;;;;;;67.07;35.70;;;;;;;4.71;100.00;100034.44;5111802;28;20024;-68
2024/02/29 02:12:00;;;;;;;68.05;35.45;;;;;;;4.98;100.00;100030.44;5111806;28;20039;-68
2024/02/29 02:14:26;;;;;;;73.70;34.92;;;;;;;5.02;100.00;100027.94;5111299;28;20102;-68
2024/02/29 02:16:51;;;;;;;61.00;32.70;;;;;;;5.06;100.00;100023.47;5091962;28;20185;-69
2024/02/29 02:19:17;;;;;;;75.65;35.30;;;;;;;5.15;100.00;100038.41;5091123;28;20035;-69
2024/02/29 02:21:43;;;;;;;81.50;35.50;;;;;;;4.84;100.00;100035.78;5095102;28;20056;-69
2024/02/29 02:24:09;;;;;;;63.33;34.40;;;;;;;5.04;100.00;100045.13;5088805;28;20031;-69
2024/02/29 02:26:35;;;;;;;74.38;35.58;;;;;;;4.89;100.00;100043.25;5091702;28;20028;-69
2024/02/29 02:29:02;;;;;;;78.38;37.83;;;;;;;4.88;100.00;100049.88;5085546;28;20122;-69
2024/02/29 02:31:29;;;;;;;66.80;36.03;;;;;;;4.92;100.00;100051.81;5111392;28;20107;-69
2024/02/29 02:33:58;;;;;;;61.40;34.60;;;;;;;4.80;100.00;100056.03;5109751;28;20027;-69
2024/02/29 02:36:24;;;;;;;71.90;39.80;;;;;;;4.76;100.00;100045.50;5090894;28;20021;-69
2024/02/29 02:38:50;;;;;;;75.25;37.53;;;;;;;4.83;100.00;100047.16;5090530;28;20430;-69
2024/02/29 02:41:16;;;;;;;72.57;37.95;;;;;;;4.72;100.00;100055.50;5077455;28;20038;-69
2024/02/29 02:43:44;;;;;;;71.55;38.45;;;;;;;4.67;100.00;100047.19;5111031;28;20051;-69
2024/02/29 02:46:10;;;;;;;73.10;36.17;;;;;;;4.44;100.00;100054.16;5107398;28;20127;-69
2024/02/29 02:48:35;;;;;;;68.55;37.70;;;;;;;4.40;100.00;100053.06;5110920;28;20162;-68
2024/02/29 02:51:01;;;;;;;64.28;37.03;;;;;;;4.24;100.00;100035.63;5092661;28;20027;-69
2024/02/29 02:53:26;;;;;;;72.40;37.33;;;;;;;4.39;100.00;100051.41;5091334;28;20031;-69
2024/02/29 02:55:51;;;;;;;68.38;37.33;;;;;;;4.47;100.00;100042.53;5090474;28;20027;-69
2024/02/29 02:58:17;;;;;;;76.65;36.88;;;;;;;4.48;100.00;100046.97;5072208;28;20044;-69
2024/02/29 03:00:42;;;;;;;63.50;35.33;;;;;;;4.41;100.00;100033.41;5078618;28;20088;-69
2024/02/29 03:03:08;;;;;;;70.15;35.38;;;;;;;4.48;100.00;100027.56;5110781;28;20020;-69
2024/02/29 03:05:33;;;;;;;66.15;35.35;;;;;;;4.32;100.00;100024.00;5109956;28;20011;-69
2024/02/29 03:07:59;;;;;;;67.22;37.28;;;;;;;4.34;100.00;100022.63;5107100;28;20111;-69
2024/02/29 03:10:24;;;;;;;75.60;39.28;;;;;;;4.30;100.00;100027.03;5090230;28;20036;-69
2024/02/29 03:12:50;;;;;;;82.25;46.10;;;;;;;4.00;100.00;100025.13;5072041;28;20028;-68
2024/02/29 03:15:15;;;;;;;79.22;45.50;;;;;;;4.04;100.00;100029.00;5071767;28;20422;-69
2024/02/29 03:17:41;;;;;;;78.78;42.67;;;;;;;3.94;100.00;100013.22;5089890;28;20456;-69
2024/02/29 03:20:13;;;;;;;70.28;36.90;;;;;;;3.95;100.00;100020.44;5097366;28;20026;-69
2024/02/29 03:22:39;;;;;;;73.05;37.22;;;;;;;3.87;100.00;100015.47;5092113;28;20171;-69
2024/02/29 03:25:05;;;;;;;71.57;36.97;;;;;;;4.01;100.00;100008.25;5110334;28;20034;-67
2024/02/29 03:27:31;;;;;;;69.07;36.30;;;;;;;3.97;100.00;100017.38;5091385;28;20024;-67
2024/02/29 03:29:59;;;;;;;64.05;38.53;;;;;;;4.08;100.00;100024.59;5089999;28;20031;-67
2024/02/29 03:32:24;;;;;;;72.10;37.45;;;;;;;4.33;100.00;100028.44;5089937;28;20039;-67
2024/02/29 03:34:50;;;;;;;78.10;38.60;;;;;;;4.30;100.00;100038.13;5089844;28;20032;-68
2024/02/29 03:37:15;;;;;;;80.63;38.10;;;;;;;4.25;100.00;100032.59;5090191;28;20032;-67
2024/02/29 03:39:41;;;;;;;71.47;38.67;;;;;;;4.33;100.00;100040.31;5080963;28;20104;-67
2024/02/29 03:42:06;;;;;;;72.30;38.80;;;;;;;4.54;100.00;100034.75;5110211;28;20027;-67
2024/02/29 03:44:32;;;;;;;72.63;37.55;;;;;;;4.79;100.00;100044.09;5091053;28;20035;-67
2024/02/29 03:46:57;;;;;;;93.93;48.80;;;;;;;4.62;100.00;100028.66;5092322;28;20039;-67
2024/02/29 03:49:23;;;;;;;114.47;63.05;;;;;;;4.46;100.00;100036.16;5089565;28;20039;-67
2024/02/29 03:51:48;;;;;;;102.45;56.65;;;;;;;4.26;100.00;100037.03;5089727;28;20032;-67
2024/02/29 03:54:14;;;;;;;83.00;42.47;;;;;;;4.31;100.00;100030.66;5089544;28;20028;-67
2024/02/29 03:56:39;;;;;;;139.05;64.43;;;;;;;4.04;100.00;100034.53;5089815;28;20028;-67
2024/02/29 03:59:04;;;;;;;97.60;48.95;;;;;;;4.13;100.00;100037.59;5081234;28;20526;-67
2024/02/29 04:01:30;;;;;;;116.30;55.50;;;;;;;4.33;100.00;100043.09;5109999;28;20510;-67
2024/02/29 04:03:55;;;;;;;84.70;42.65;;;;;;;4.24;100.00;100030.09;5109337;28;20031;-67
2024/02/29 04:06:21;;;;;;;70.88;39.25;;;;;;;4.20;100.00;100027.06;5103505;28;20027;-67
2024/02/29 04:08:46;;;;;;;78.53;44.70;;;;;;;4.07;100.00;100023.75;5109997;28;20041;-67
2024/02/29 04:11:12;;;;;;;72.25;39.58;;;;;;;4.33;100.00;100023.69;5109997;28;20031;-67
2024/02/29 04:13:38;;;;;;;69.93;37.22;;;;;;;4.38;100.00;100027.59;5109878;28;20028;-67
2024/02/29 04:16:04;;;;;;;63.05;36.72;;;;;;;4.54;100.00;100018.13;5109740;28;20027;-67
2024/02/29 04:18:30;;;;;;;78.68;39.45;;;;;;;4.44;100.00;100021.75;5109301;28;20404;-67
2024/02/29 04:20:55;;;;;;;65.07;36.95;;;;;;;4.30;100.00;100031.78;5104996;28;20032;-67
2024/02/29 04:23:21;;;;;;;68.45;36.55;;;;;;;4.45;100.00;100017.03;5071042;28;20032;-67
2024/02/29 04:25:47;;;;;;;72.50;41.05;;;;;;;4.24;100.00;100030.09;5089372;28;20106;-67
2024/02/29 04:28:14;;;;;;;88.15;45.05;;;;;;;4.45;100.00;100030.88;5071289;28;20134;-67
2024/02/29 04:30:41;;;;;;;66.22;39.58;;;;;;;4.57;100.00;100025.88;5092911;28;20068;-67
2024/02/29 04:33:07;;;;;;;67.85;38.03;;;;;;;4.42;100.00;100014.84;5093360;28;20034;-67
2024/02/29 04:35:33;;;;;;;66.50;39.28;;;;;;;3.98;100.00;100025.44;5096270;28;20419;-68
2024/02/29 04:37:59;;;;;;;72.97;39.97;;;;;;;4.07;100.00;100034.00;5091349;28;20417;-68
2024/02/29 04:40:26;;;;;;;87.30;44.38;;;;;;;4.28;100.00;100029.28;5093140;28;20038;-68
2024/02/29 04:42:52;;;;;;;69.18;38.40;;;;;;;4.24;100.00;100022.63;5075068;28;20071;-67
2024/02/29 04:45:18;;;;;;;72.95;37.42;;;;;;;4.37;100.00;100037.03;5093128;28;20024;-68
2024/02/29 04:47:43;;;;;;;74.13;39.60;;;;;;;4.54;100.00;100031.97;5086087;28;20584;-68
2024/02/29 04:50:09;;;;;;;77.55;38.65;;;;;;;4.72;100.00;100040.81;5091728;28;20031;-68
2024/02/29 04:52:35;;;;;;;70.38;35.97;;;;;;;4.69;100.00;100044.97;5091633;28;20050;-68
2024/02/29 04:55:01;;;;;;;70.40;38.38;;;;;;;4.63;100.00;100046.09;5091480;28;20039;-68
2024/02/29 04:57:26;;;;;;;77.80;37.17;;;;;;;4.67;100.00;100040.81;5106453;28;20062;-68
2024/02/29 04:59:51;;;;;;;72.40;38.92;;;;;;;4.69;100.00;100046.91;5113000;28;20561;-68
2024/02/29 05:02:17;;;;;;;68.68;38.10;;;;;;;4.66;100.00;100051.09;5094850;28;20026;-68
2024/02/29 05:04:44;;;;;;;64.30;37.67;;;;;;;4.72;100.00;100055.50;5094116;28;20027;-68
2024/02/29 05:07:10;;;;;;;67.07;37.15;;;;;;;4.56;100.00;100057.47;5111025;28;20035;-68
2024/02/29 05:09:36;;;;;;;75.70;35.58;;;;;;;4.67;100.00;100054.66;5104349;28;20031;-68
2024/02/29 05:12:01;;;;;;;66.35;37.30;;;;;;;4.76;100.00;100066.84;5113052;28;20016;-68
2024/02/29 05:14:27;;;;;;;74.68;36.33;;;;;;;4.87;100.00;100053.78;5112889;28;20036;-68
2024/02/29 05:16:53;;;;;;;77.47;36.88;;;;;;;5.02;100.00;100059.28;5094071;28;20036;-68
2024/02/29 05:19:18;;;;;;;69.18;37.80;;;;;;;5.22;100.00;100073.34;5107061;28;20028;-68
2024/02/29 05:21:45;;;;;;;87.70;41.50;;;;;;;5.22;100.00;100071.38;5092360;28;20031;-68
2024/02/29 05:24:11;;;;;;;92.47;46.78;;;;;;;5.25;100.00;100065.28;5103216;28;20407;-67
2024/02/29 05:26:36;;;;;;;93.93;47.35;;;;;;;5.30;100.00;100051.38;5112704;28;20031;-67
2024/02/29 05:29:03;;;;;;;99.68;46.58;;;;;;;5.25;100.00;100056.13;5113111;28;20046;-68
2024/02/29 05:31:28;;;;;;;98.30;50.08;;;;;;;5.45;100.00;100061.56;5092267;28;20085;-68
2024/02/29 05:33:54;;;;;;;100.05;47.08;;;;;;;5.39;100.00;100057.16;5092397;28;20024;-68
2024/02/29 05:36:19;;;;;;;84.50;43.63;;;;;;;5.23;100.00;100053.63;5080026;28;20039;-69
2024/02/29 05:38:49;;;;;;;71.88;42.30;;;;;;;5.23;100.00;100055.59;5103821;28;20037;-67
2024/02/29 05:41:15;;;;;;;80.97;41.72;;;;;;;5.35;100.00;100069.94;5111935;28;20443;-67
2024/02/29 05:43:41;;;;;;;80.40;42.15;;;;;;;5.47;100.00;100070.44;5112518;28;20023;-68
2024/02/29 05:46:06;;;;;;;69.43;40.10;;;;;;;5.31;100.00;100057.78;5103586;28;20027;-73
2024/02/29 05:48:35;;;;;;;77.22;43.83;;;;;;;4.80;100.00;100062.38;5079373;28;20024;-72
2024/02/29 05:51:02;;;;;;;79.15;44.50;;;;;;;4.85;100.00;100065.16;5093895;28;20312;-71
2024/02/29 05:53:27;;;;;;;115.70;62.53;;;;;;;4.58;100.00;100059.97;5112550;28;20543;-71
2024/02/29 05:55:53;;;;;;;111.35;59.70;;;;;;;4.73;100.00;100064.66;5092872;28;20035;-71
2024/02/29 05:58:18;;;;;;;106.85;61.55;;;;;;;4.55;100.00;100064.13;5099775;28;20048;-73
2024/02/29 06:00:44;;;;;;;90.25;48.35;;;;;;;4.29;100.00;100066.94;5104708;28;20050;-72
2024/02/29 06:03:09;;;;;;;97.03;43.85;;;;;;;4.33;100.00;100072.75;5110666;28;20027;-73
2024/02/29 06:05:35;;;;;;;88.40;42.47;;;;;;;4.39;100.00;100074.38;5088699;28;20016;-73
2024/02/29 06:08:03;;;;;;;81.15;45.00;;;;;;;4.43;100.00;100071.91;5090891;28;20042;-72
2024/02/29 06:10:29;;;;;;;87.95;43.75;;;;;;;4.50;100.00;100067.72;5108261;28;20508;-74
2024/02/29 06:12:54;;;;;;;85.65;39.63;;;;;;;4.45;100.00;100077.97;5089990;28;20042;-73
2024/02/29 06:15:20;;;;;;;73.35;39.40;;;;;;;4.41;100.00;100083.28;5089937;28;20038;-72
2024/02/29 06:17:46;;;;;;;65.53;38.15;;;;;;;4.61;100.00;100074.09;5108606;28;20027;-73
2024/02/29 06:20:12;;;;;;;88.05;50.75;;;;;;;4.72;100.00;100071.31;5103697;28;20027;-71
2024/02/29 06:22:41;;;;;;;81.43;42.78;;;;;;;4.92;100.00;100073.19;5103160;28;20034;-73
2024/02/29 06:25:11;;;;;;;75.32;45.47;;;;;;;4.87;100.00;100076.78;5102463;28;20015;-72
2024/02/29 06:27:37;;;;;;;86.60;40.22;;;;;;;5.11;100.00;100087.25;5085474;28;20076;-72
2024/02/29 06:30:08;;;;;;;85.20;45.25;;;;;;;5.11;100.00;100073.38;5091091;28;20039;-71
2024/02/29 06:32:33;;;;;;;;;;;;;;;5.23;100.00;100080.56;5106474;28;20502;-73
2024/02/29 06:34:59;;;;;;;100.65;46.85;;;;;;;5.27;100.00;100085.25;5106581;28;19924;-70
2024/02/29 06:37:24;;;;;;;96.35;49.97;;;;;;;5.00;100.00;100080.09;5109671;28;20045;-72
2024/02/29 06:39:50;;;;;;;97.43;45.85;;;;;;;5.00;100.00;100077.31;5087711;28;20045;-74
2024/02/29 06:42:15;;;;;;;92.10;45.30;;;;;;;5.24;100.00;100074.69;5086515;28;20756;-74
2024/02/29 06:44:41;;;;;;;95.20;45.78;;;;;;;5.54;100.00;100083.16;5104773;28;20400;-74
2024/02/29 06:47:06;;;;;;;82.45;45.25;;;;;;;5.73;100.00;100075.00;5106675;28;20031;-70
2024/02/29 06:49:32;;;;;;;88.75;46.45;;;;;;;6.05;100.00;100076.47;5100441;28;20024;-72
2024/02/29 06:51:57;;;;;;;71.95;38.75;;;;;;;6.29;100.00;100081.28;5088344;28;20027;-71
2024/02/29 06:54:23;;;;;;;63.08;40.40;;;;;;;6.49;100.00;100083.03;5088700;28;20473;-72
2024/02/29 06:56:48;;;;;;;73.28;38.38;;;;;;;6.66;100.00;100084.56;5083768;28;20521;-69
2024/02/29 06:59:13;;;;;;;85.78;41.83;;;;;;;6.82;100.00;100071.31;5106049;28;20046;-69
2024/02/29 07:01:39;;;;;;;92.10;45.42;;;;;;;7.00;100.00;100072.50;5101564;28;20027;-69
2024/02/29 07:04:06;;;;;;;74.38;41.33;;;;;;;7.10;100.00;100068.75;5107446;28;20130;-71
2024/02/29 07:06:32;;;;;;;81.72;42.95;;;;;;;7.01;100.00;100065.81;5085723;28;20027;-68
2024/02/29 07:08:58;;;;;;;84.90;44.22;;;;;;;7.20;100.00;100070.59;5105702;28;20027;-69
2024/02/29 07:11:24;;;;;;;93.40;46.90;;;;;;;7.33;100.00;100078.19;5089833;28;20132;-68
2024/02/29 07:13:50;;;;;;;114.88;57.60;;;;;;;7.23;100.00;100076.38;5103986;28;20035;-67
2024/02/29 07:16:19;;;;;;;61.10;36.50;;;;;;;7.24;100.00;100071.63;5081406;28;20039;-69
2024/02/29 07:18:44;;;;;;;71.32;36.13;;;;;;;7.16;100.00;100079.53;5086576;28;20537;-69
2024/02/29 07:21:10;;;;;;;70.15;37.42;;;;;;;7.11;100.00;100071.22;5090390;28;20028;-69
2024/02/29 07:23:37;;;;;;;67.15;37.10;;;;;;;7.00;100.00;100066.94;5106252;28;20050;-69
2024/02/29 07:26:03;;;;;;;75.35;39.35;;;;;;;7.07;100.00;100072.97;5085037;28;20062;-68
2024/02/29 07:28:28;;;;;;;62.30;36.72;;;;;;;6.96;100.00;100075.03;5107332;28;20102;-68
2024/02/29 07:30:54;;;;;;;62.83;35.58;;;;;;;6.91;100.00;100068.72;5104297;28;20435;-68
2024/02/29 07:33:19;;;;;;;65.10;37.97;;;;;;;6.97;100.00;100060.00;5081484;28;20061;-69
2024/02/29 07:35:45;;;;;;;63.50;37.53;;;;;;;6.97;100.00;100062.78;5103237;28;20082;-68
2024/02/29 07:38:10;;;;;;;70.53;40.72;;;;;;;6.95;100.00;100067.00;5098791;28;20566;-68
2024/02/29 07:40:36;;;;;;;65.55;39.15;;;;;;;7.17;100.00;100077.56;5106038;28;20035;-69
2024/02/29 07:43:01;;;;;;;69.63;38.25;;;;;;;7.35;100.00;100092.63;5107082;28;20031;-67
2024/02/29 07:45:27;;;;;;;62.40;36.63;;;;;;;7.43;100.00;100083.63;5106129;28;20027;-69
2024/02/29 07:47:53;;;;;;;70.72;40.42;;;;;;;7.57;100.00;100088.47;5080892;28;20048;-69
2024/02/29 07:50:19;;;;;;;58.92;37.30;;;;;;;7.61;100.00;100070.06;5097722;28;20109;-68
2024/02/29 07:52:44;;;;;;;70.75;37.80;;;;;;;7.61;100.00;100063.63;5097446;28;20561;-69
2024/02/29 07:55:13;;;;;;;63.13;38.28;;;;;;;7.59;100.00;100062.00;5083253;28;20040;-68
2024/02/29 07:57:39;;;;;;;62.88;36.85;;;;;;;7.82;100.00;100067.78;5100985;28;20039;-68
2024/02/29 08:00:05;;;;;;;68.57;38.78;;;;;;;7.97;100.00;100074.25;5087608;28;20039;-68
2024/02/29 08:02:30;;;;;;;74.47;40.35;;;;;;;8.08;100.00;100069.31;5075297;28;20032;-68
2024/02/29 08:04:56;;;;;;;73.72;41.15;;;;;;;8.23;100.00;100071.88;5095960;28;20020;-71
2024/02/29 08:07:21;;;;;;;69.72;40.58;;;;;;;8.27;100.00;100070.13;5095987;28;20020;-70
2024/02/29 08:09:47;;;;;;;76.00;42.17;;;;;;;8.46;100.00;100058.09;5076351;28;20023;-70
2024/02/29 08:12:12;;;;;;;72.28;42.60;;;;;;;8.55;100.00;100061.84;5097965;28;20148;-69
2024/02/29 08:14:38;;;;;;;75.63;44.45;;;;;;;8.52;100.00;100062.47;5100276;28;20027;-70
2024/02/29 08:17:03;;;;;;;66.07;37.60;;;;;;;8.65;100.00;100063.63;5094029;28;20023;-70
2024/02/29 08:19:29;;;;;;;74.82;42.53;;;;;;;8.79;100.00;100072.00;5098815;28;20379;-70
2024/02/29 08:21:54;;;;;;;72.47;42.83;;;;;;;8.92;100.00;100073.16;5109565;28;20023;-70
2024/02/29 08:24:20;;;;;;;67.70;39.33;;;;;;;8.99;100.00;100078.34;5089174;28;20513;-71
2024/02/29 08:26:45;;;;;;;63.65;38.17;;;;;;;8.83;100.00;100073.06;5100532;28;20028;-70
2024/02/29 08:29:13;;;;;;;70.78;39.78;;;;;;;8.91;100.00;100052.00;5102827;28;20031;-71
2024/02/29 08:31:40;;;;;;;80.30;44.15;;;;;;;9.10;100.00;100063.03;5087940;28;20038;-71
2024/02/29 08:34:05;;;;;;;76.85;42.35;;;;;;;9.29;100.00;100059.31;5086575;28;20088;-70
2024/02/29 08:36:31;;;;;;;76.47;41.33;;;;;;;9.50;100.00;100067.22;5103637;28;20024;-71
2024/02/29 08:38:56;;;;;;;80.30;42.67;;;;;;;9.71;100.00;100075.97;5087997;28;20027;-70
2024/02/29 08:41:22;;;;;;;64.68;39.08;;;;;;;9.53;100.00;100078.59;5110476;28;20033;-71
2024/02/29 08:43:47;;;;;;;86.18;48.50;;;;;;;9.67;100.00;100067.41;5112131;28;20031;-71
2024/02/29 08:46:13;;;;;;;63.40;37.50;;;;;;;9.59;100.00;100084.91;5093083;28;20027;-70
2024/02/29 08:48:38;;;;;;;66.10;39.00;;;;;;;9.40;100.00;100080.28;5112264;28;20024;-69
2024/02/29 08:51:04;;;;;;;76.13;40.75;;;;;;;9.49;100.00;100085.97;5112187;28;20023;-71
2024/02/29 08:53:29;;;;;;;65.15;39.92;;;;;;;9.77;100.00;100085.91;5111914;28;20058;-71
2024/02/29 08:55:55;;;;;;;67.30;39.17;;;;;;;9.85;100.00;100078.72;5093492;28;20032;-71
2024/02/29 08:58:20;;;;;;;68.57;39.78;;;;;;;9.76;100.00;100072.22;5108429;28;20241;-70
2024/02/29 09:00:46;;;;;;;77.63;43.13;;;;;;;9.99;100.00;100073.09;5087198;28;20031;-70
2024/02/29 09:03:13;;;;;;;79.47;44.67;;;;;;;10.12;100.00;100071.38;5107170;28;20472;-70
2024/02/29 09:05:39;;;;;;;71.70;39.75;;;;;;;10.23;100.00;100066.38;5106793;28;20028;-70
2024/02/29 09:08:05;;;;;;;78.10;40.10;;;;;;;10.49;100.00;100069.34;5111427;28;20372;-70
2024/02/29 09:10:30;;;;;;;88.45;40.90;;;;;;;10.55;100.00;100075.63;5085162;28;20019;-69
2024/02/29 09:12:56;;;;;;;73.63;40.13;;;;;;;10.71;100.00;100070.47;5091644;28;20027;-70
2024/02/29 09:15:21;;;;;;;68.40;38.90;;;;;;;10.44;100.00;100075.09;5111050;28;20114;-71
2024/02/29 09:17:46;;;;;;;70.95;37.75;;;;;;;10.90;100.00;100066.63;5092897;28;20501;-72
2024/02/29 09:20:12;;;;;;;65.43;38.47;;;;;;;11.07;100.00;100063.06;5109707;28;20027;-72
2024/02/29 09:22:37;;;;;;;64.60;37.40;;;;;;;11.26;100.00;100061.94;5111047;28;20092;-73
2024/02/29 09:25:04;;;;;;;68.68;35.80;;;;;;;11.34;100.00;100069.56;5109216;28;20031;-72
2024/02/29 09:27:29;;;;;;;60.03;36.97;;;;;;;11.53;100.00;100049.66;5107757;28;20057;-72
2024/02/29 09:29:55;;;;;;;60.75;35.78;;;;;;;11.42;99.78;100043.56;5108468;28;20035;-72
2024/02/29 09:32:20;;;;;;;64.20;36.80;;;;;;;11.54;100.00;100051.31;5106588;28;20059;-73
2024/02/29 09:34:45;;;;;;;65.25;34.75;;;;;;;11.63;96.38;100046.53;5104006;28;20411;-71
2024/02/29 09:37:11;;;;;;;59.85;34.05;;;;;;;11.52;96.22;100037.63;5106126;28;20043;-73
2024/02/29 09:39:36;;;;;;;64.13;34.67;;;;;;;11.64;97.62;100020.16;5090414;28;20031;-73
2024/02/29 09:42:03;;;;;;;65.22;33.85;;;;;;;11.46;97.40;100026.91;5111624;28;20032;-72
2024/02/29 09:44:29;;;;;;;51.50;31.45;;;;;;;11.30;96.90;100027.38;5111696;28;20023;-72
2024/02/29 09:46:55;;;;;;;96.20;36.70;;;;;;;11.17;100.00;100023.56;5110365;28;20039;-71
2024/02/29 09:49:20;;;;;;;57.15;33.15;;;;;;;11.65;97.24;100024.63;5107098;28;20492;-73
2024/02/29 09:51:47;;;;;;;57.45;33.88;;;;;;;11.91;96.34;100020.97;5111043;28;20051;-72
2024/02/29 09:54:17;;;;;;;61.10;35.17;;;;;;;12.00;94.90;100020.97;5105591;28;20074;-70
2024/02/29 09:56:42;;;;;;;;;;;;;;;12.25;94.59;100017.69;5076904;28;20027;-71
2024/02/29 10:05:19;;;;;;;59.05;33.15;;;;;;;12.24;92.49;100011.22;5045244;28;20167;-70
2024/02/29 10:07:48;;;;;;;59.78;30.95;;;;;;;12.35;89.84;100001.31;5046566;28;20121;-70
2024/02/29 10:13:15;;;;;;;56.80;30.80;;;;;;;12.43;90.45;100002.47;5449915;22;20114;-66
2024/02/29 10:15:41;;;;;;;66.22;34.70;;;;;;;12.58;89.09;100005.88;5069753;28;23270;-65
2024/02/29 10:18:07;;;;;;;60.88;32.78;;;;;;;12.51;90.14;99997.97;5052024;28;20017;-66
2024/02/29 10:20:32;;;;;;;60.40;32.42;;;;;;;12.55;91.00;99993.34;5090688;28;20029;-66
2024/02/29 10:22:58;;;;;;;64.50;32.30;;;;;;;12.39;89.90;99989.44;5085447;28;20027;-66
2024/02/29 10:25:25;;;;;;;53.35;31.98;;;;;;;12.49;88.42;99986.28;5077924;28;20448;-66
2024/02/29 10:27:50;;;;;;;57.95;32.17;;;;;;;12.40;89.70;99974.25;5070383;28;20272;-68
2024/02/29 10:30:17;;;;;;;58.08;32.33;;;;;;;12.46;90.71;99967.28;5082788;28;20546;-68
2024/02/29 10:32:45;;;;;;;65.97;35.13;;;;;;;12.41;90.25;99976.72;5079135;28;20499;-68
2024/02/29 10:35:22;;;;;;;61.60;34.75;;;;;;;12.45;89.65;99963.69;5051541;28;20494;-70
2024/02/29 10:37:49;;;;;;;67.18;34.40;;;;;;;12.72;88.82;99955.13;5067657;28;20453;-69
2024/02/29 10:40:16;;;;;;;67.00;35.85;;;;;;;12.80;89.09;99959.06;5078153;28;20376;-69
2024/02/29 10:42:41;;;;;;;71.45;34.60;;;;;;;12.80;89.01;99953.47;5084462;28;20456;-69
2024/02/29 10:45:17;;;;;;;63.58;34.15;;;;;;;13.02;88.52;99938.28;5069578;28;20801;-69
2024/02/29 10:47:59;;;;;;;70.68;36.03;;;;;;;13.10;87.70;99940.22;5085562;28;20031;-69
2024/02/29 10:50:26;;;;;;;59.55;33.30;;;;;;;13.30;87.42;99932.97;5087584;28;20020;-70
2024/02/29 10:53:13;;;;;;;62.42;34.20;;;;;;;13.09;86.43;99932.13;5087543;28;20103;-69
2024/02/29 10:55:49;;;;;;;70.20;32.40;;;;;;;13.14;86.18;99929.94;5069229;28;20024;-68
2024/02/29 10:58:29;;;;;;;66.15;37.25;;;;;;;12.88;87.58;99921.69;5165677;27;20128;-69
2024/02/29 11:00:55;;;;;;;58.55;33.45;;;;;;;12.78;87.11;99908.88;5145695;27;20049;-68
2024/02/29 11:03:21;;;;;;;59.90;33.90;;;;;;;12.94;86.19;99925.97;5143906;27;20019;-69
2024/02/29 11:05:48;;;;;;;68.80;34.50;;;;;;;12.76;88.10;99914.81;5141092;27;20023;-69
2024/02/29 11:08:15;;;;;;;66.43;35.03;;;;;;;12.84;88.44;99893.47;5115495;27;20043;-69
2024/02/29 11:10:40;;;;;;;61.33;33.88;;;;;;;13.20;87.20;99917.34;5136103;27;20023;-69
2024/02/29 11:13:06;;;;;;;75.78;33.92;;;;;;;13.28;85.24;99903.56;5142711;27;20041;-68